createdAt,value
2019-04-28T00:04:12.666Z,5.67
2019-04-28T00:12:31.127Z,11.47
2019-04-28T00:21:02.616Z,6.70
2019-04-28T00:29:21.015Z,9.33
2019-04-28T00:37:39.032Z,7.30
2019-04-28T00:45:56.535Z,9.43
2019-04-28T00:54:13.988Z,7.63
2019-04-28T01:02:36.915Z,8.80
2019-04-28T01:10:54.347Z,12.73
2019-04-28T01:19:17.138Z,9.50
2019-04-28T01:27:53.879Z,9.80
2019-04-28T01:36:11.327Z,8.20
2019-04-28T01:44:29.644Z,8.37
2019-04-28T01:52:47.338Z,9.43
2019-04-28T02:01:04.921Z,9.28
2019-04-28T02:09:22.381Z,8.03
2019-04-28T02:17:40.267Z,9.28
2019-04-28T02:25:59.645Z,9.90
2019-04-28T02:34:17.255Z,8.97
2019-04-28T02:42:34.717Z,8.07
2019-04-28T02:50:57.916Z,8.40
2019-04-28T02:59:15.387Z,9.13
2019-04-28T03:07:32.889Z,10.50
2019-04-28T03:16:10.805Z,12.07
2019-04-28T03:24:31.262Z,11.10
2019-04-28T03:33:18.830Z,10.87
2019-04-28T03:41:35.218Z,11.53
2019-04-28T03:50:23.011Z,10.63
2019-04-28T03:58:40.811Z,13.00
2019-04-28T04:07:42.810Z,13.73
2019-04-28T04:16:06.450Z,12.53
2019-04-28T04:24:45.237Z,11.35
2019-04-28T04:33:03.050Z,11.40
2019-04-28T04:41:54.081Z,10.93
2019-04-28T04:50:13.222Z,10.50
2019-04-28T04:58:30.743Z,9.77
2019-04-28T05:06:49.690Z,10.10
2019-04-28T05:24:37.917Z,10.00
2019-04-28T05:32:56.335Z,10.53
2019-04-28T05:41:14.545Z,10.60
2019-04-28T05:58:40.266Z,11.33
2019-04-28T06:07:37.100Z,16.03
2019-04-28T06:15:54.536Z,18.70
2019-04-28T06:24:11.975Z,16.80
2019-04-28T06:32:29.519Z,17.90
2019-04-28T06:49:46.749Z,17.40
2019-04-28T06:58:04.213Z,16.02
2019-04-28T07:06:21.634Z,14.20
2019-04-28T07:14:39.312Z,12.53
2019-04-28T07:22:56.769Z,13.07
2019-04-28T07:31:14.270Z,11.87
2019-04-28T07:39:31.751Z,12.50
2019-04-28T07:47:49.220Z,14.38
2019-04-28T07:56:07.096Z,11.40
2019-04-28T08:04:24.667Z,11.10
2019-04-28T08:12:42.191Z,8.30
2019-04-28T08:20:59.678Z,6.33
2019-04-28T08:29:17.122Z,7.67
2019-04-28T08:37:34.961Z,7.13
2019-04-28T08:45:52.871Z,6.87
2019-04-28T08:54:10.742Z,5.77
2019-04-28T09:02:28.244Z,5.60
2019-04-28T09:10:45.709Z,4.60
2019-04-28T09:19:03.266Z,9.35
2019-04-28T09:27:20.733Z,6.00
2019-04-28T09:35:38.181Z,5.10
2019-04-28T09:44:00.913Z,4.63
2019-04-28T09:52:18.382Z,4.13
2019-04-28T10:00:37.879Z,4.47
2019-04-28T10:08:55.349Z,4.30
2019-04-28T10:17:12.790Z,3.47
2019-04-28T10:25:30.216Z,3.70
2019-04-28T10:33:51.158Z,4.60
2019-04-28T10:42:08.696Z,3.40
2019-04-28T10:50:26.164Z,3.77
2019-04-28T10:58:45.517Z,3.07
2019-04-28T11:07:03.284Z,3.70
2019-04-28T11:15:31.721Z,3.03
2019-04-28T11:23:50.263Z,3.17
2019-04-28T11:32:07.897Z,3.37
2019-04-28T11:40:25.652Z,3.20
2019-04-28T11:48:43.116Z,3.58
2019-04-28T11:57:00.563Z,3.10
2019-04-28T12:05:19.372Z,3.43
2019-04-28T12:14:11.440Z,2.43
2019-04-28T12:22:29.218Z,3.50
2019-04-28T12:30:46.920Z,2.70
2019-04-28T12:39:05.857Z,4.37
2019-04-28T12:47:23.288Z,3.10
2019-04-28T12:55:40.756Z,7.20
2019-04-28T13:04:18.437Z,2.80
2019-04-28T13:12:35.956Z,5.20
2019-04-28T13:20:53.468Z,2.77
2019-04-28T13:29:10.947Z,4.30
2019-04-28T13:37:28.489Z,3.30
2019-04-28T13:45:45.969Z,3.63
2019-04-28T13:54:05.071Z,3.43
2019-04-28T14:02:44.860Z,3.80
2019-04-28T14:11:03.162Z,3.17
2019-04-28T14:19:20.719Z,4.40
2019-04-28T14:27:38.223Z,3.70
2019-04-28T14:35:55.752Z,3.30
2019-04-28T14:44:13.180Z,3.20
2019-04-28T14:52:30.844Z,2.80
2019-04-28T15:00:53.247Z,3.20
2019-04-28T15:09:29.166Z,3.17
2019-04-28T15:17:46.775Z,2.93
2019-04-28T15:26:04.351Z,2.60
2019-04-28T15:34:21.972Z,2.60
2019-04-28T15:42:39.535Z,3.17
2019-04-28T15:50:57.103Z,2.20
2019-04-28T15:59:14.640Z,3.13
2019-04-28T16:07:32.098Z,3.40
2019-04-28T16:15:49.806Z,2.30
2019-04-28T16:24:07.401Z,2.53
2019-04-28T16:32:25.462Z,2.70
2019-04-28T16:40:47.315Z,1.53
2019-04-28T16:49:05.028Z,3.10
2019-04-28T16:57:36.561Z,2.60
2019-04-28T17:05:54.339Z,3.40
2019-04-28T17:14:11.837Z,2.43
2019-04-28T17:22:29.367Z,2.53
2019-04-28T17:30:47.182Z,2.63
2019-04-28T17:39:07.661Z,4.60
2019-04-28T17:47:25.087Z,3.60
2019-04-28T17:55:44.726Z,3.90
2019-04-28T18:04:17.507Z,3.60
2019-04-28T18:12:35.137Z,3.30
2019-04-28T18:20:52.681Z,3.83
2019-04-28T18:29:10.098Z,3.17
2019-04-28T18:37:46.774Z,3.43
2019-04-28T18:46:04.217Z,5.00
2019-04-28T18:54:21.677Z,5.60
2019-04-28T19:02:43.381Z,5.50
2019-04-28T19:11:08.129Z,5.17
2019-04-28T19:19:26.918Z,5.93
2019-04-28T19:27:44.355Z,5.47
2019-04-28T19:36:01.765Z,3.95
2019-04-28T19:44:19.276Z,27.27
2019-04-28T19:52:39.826Z,4.00
2019-04-28T20:01:01.412Z,4.63
2019-04-28T20:09:19.261Z,4.10
2019-04-28T20:17:36.747Z,9.30
2019-04-28T20:25:54.195Z,5.57
2019-04-28T20:34:11.650Z,7.90
2019-04-28T20:43:03.652Z,6.07
2019-04-28T20:51:21.138Z,4.80
2019-04-28T20:59:38.544Z,5.37
2019-04-28T21:07:55.968Z,6.03
2019-04-28T21:16:13.410Z,4.93
2019-04-28T21:24:30.988Z,5.20
2019-04-28T21:32:48.452Z,4.70
2019-04-28T21:41:06.134Z,6.40
2019-04-28T21:49:28.827Z,6.10
2019-04-28T21:57:47.312Z,5.73
2019-04-28T22:06:05.007Z,6.13
2019-04-28T22:14:22.434Z,5.43
2019-04-28T22:22:39.833Z,5.30
2019-04-28T22:30:57.260Z,5.60
2019-04-28T22:39:15.208Z,6.33
2019-04-28T22:47:32.665Z,5.33
2019-04-28T22:55:55.771Z,5.43
2019-04-28T23:04:19.383Z,4.80
2019-04-28T23:12:36.788Z,4.22
2019-04-28T23:20:57.599Z,5.07
2019-04-28T23:29:15.015Z,4.60
2019-04-28T23:37:32.509Z,4.23
2019-04-28T23:45:49.937Z,5.77
2019-04-28T23:54:07.552Z,6.30
